Terminal Aerodrome Forecast
Issued by NWS

Home | Current Version | Previous Version | Text Only | Print | Product List | Glossary On
Versions: 1 2 3 4 5 6 7 8 9 10 11 12 13 14 15 16 17
000
FTUS43 KGLD 151121
TAFMCK
TAF
KMCK 151121Z 1512/1612 VRB03KT P6SM VCSH BKN020
     FM151700 13004KT 6SM -FZRAPL SCT008 OVC015
     FM152100 12004KT 5SM -SNPL SCT008 OVC015
     FM160100 VRB03KT 3SM -SN SCT003 OVC008
     FM160500 04004KT 2SM -SN OVC003=

USA.gov is the U.S. government's official web portal to all federal, state and local government web resources and services.